createdAt,value
2022-11-19T00:02:06.450Z,7.33
2022-11-19T00:04:34.837Z,7.32
2022-11-19T00:07:03.172Z,7.32
2022-11-19T00:09:31.603Z,7.31
2022-11-19T00:12:18.907Z,7.30
2022-11-19T00:14:47.283Z,7.30
2022-11-19T00:17:15.611Z,7.29
2022-11-19T00:19:43.939Z,7.27
2022-11-19T00:22:12.401Z,7.26
2022-11-19T00:24:40.758Z,7.24
2022-11-19T00:27:10.442Z,7.21
2022-11-19T00:29:39.357Z,7.19
2022-11-19T00:32:07.771Z,7.17
2022-11-19T00:34:36.084Z,7.16
2022-11-19T00:37:04.460Z,7.15
2022-11-19T00:39:32.955Z,7.13
2022-11-19T00:42:01.371Z,7.12
2022-11-19T00:44:36.824Z,7.11
2022-11-19T00:47:06.155Z,7.09
2022-11-19T00:49:34.760Z,7.07
2022-11-19T00:52:03.089Z,7.05
2022-11-19T00:54:31.435Z,7.03
2022-11-19T00:56:59.917Z,7.01
2022-11-19T00:59:28.387Z,6.99
2022-11-19T01:01:58.140Z,6.96
2022-11-19T01:04:26.528Z,6.93
2022-11-19T01:06:55.197Z,6.90
2022-11-19T01:09:24.680Z,6.87
2022-11-19T01:11:53.018Z,6.83
2022-11-19T01:14:21.385Z,6.81
2022-11-19T01:16:49.887Z,6.79
2022-11-19T01:19:19.882Z,6.76
2022-11-19T01:21:48.429Z,6.73
2022-11-19T01:24:16.920Z,6.70
2022-11-19T01:26:46.198Z,6.67
2022-11-19T01:29:14.868Z,6.64
2022-11-19T01:31:43.333Z,6.61
2022-11-19T01:34:11.825Z,6.59
2022-11-19T01:36:41.751Z,6.55
2022-11-19T01:39:10.106Z,6.53
2022-11-19T01:41:38.418Z,6.50
2022-11-19T01:44:08.791Z,6.46
2022-11-19T01:46:39.744Z,6.41
2022-11-19T01:49:11.672Z,6.37
2022-11-19T01:51:45.887Z,6.33
2022-11-19T01:54:23.098Z,6.30
2022-11-19T01:56:51.513Z,6.26
2022-11-19T01:59:20.982Z,6.24
2022-11-19T02:01:49.531Z,6.21
2022-11-19T02:04:19.850Z,6.17
2022-11-19T02:06:49.673Z,6.14
2022-11-19T02:09:18.456Z,6.09
2022-11-19T02:12:05.160Z,6.04
2022-11-19T02:15:01.852Z,5.99
2022-11-19T02:17:45.781Z,5.95
2022-11-19T02:20:38.973Z,5.91
2022-11-19T02:23:26.927Z,5.83
2022-11-19T02:26:24.683Z,5.80
2022-11-19T02:28:59.143Z,5.76
2022-11-19T02:31:36.969Z,5.72
2022-11-19T02:34:13.784Z,5.67
2022-11-19T02:36:47.345Z,5.62
2022-11-19T02:39:20.931Z,5.59
2022-11-19T02:41:54.747Z,5.57
2022-11-19T02:44:45.276Z,5.54
2022-11-19T02:47:19.708Z,5.51
2022-11-19T02:49:50.473Z,5.48
2022-11-19T02:52:19.955Z,5.46
2022-11-19T02:54:48.336Z,5.43
2022-11-19T02:57:16.645Z,5.40
2022-11-19T03:00:09.591Z,5.37
2022-11-19T03:03:01.251Z,5.34
2022-11-19T03:05:34.515Z,5.31
2022-11-19T03:08:03.807Z,5.28
2022-11-19T03:10:40.446Z,5.27
2022-11-19T03:13:30.181Z,5.22
2022-11-19T03:16:17.299Z,5.21
2022-11-19T03:18:51.764Z,5.19
2022-11-19T03:21:24.014Z,5.19
2022-11-19T03:23:58.785Z,5.17
2022-11-19T03:26:33.354Z,5.17
2022-11-19T03:29:04.958Z,5.16
2022-11-19T03:31:35.586Z,5.15
2022-11-19T03:34:10.567Z,5.14
2022-11-19T03:36:41.427Z,5.12
2022-11-19T03:39:13.891Z,5.11
2022-11-19T03:41:44.656Z,5.11
2022-11-19T03:44:18.036Z,5.10
2022-11-19T03:46:51.840Z,5.09
2022-11-19T03:49:27.856Z,5.07
2022-11-19T03:52:00.692Z,5.06
2022-11-19T03:54:29.588Z,5.05
2022-11-19T03:56:59.763Z,5.03
2022-11-19T03:59:30.021Z,5.01
2022-11-19T04:02:02.856Z,5.01
2022-11-19T04:04:38.503Z,4.98
2022-11-19T04:07:09.064Z,4.96
2022-11-19T04:09:37.881Z,4.94
2022-11-19T04:12:08.230Z,4.91
2022-11-19T04:14:36.614Z,4.90
2022-11-19T04:17:05.013Z,4.90
2022-11-19T04:19:34.892Z,4.88
2022-11-19T04:22:03.188Z,4.86
2022-11-19T04:24:31.773Z,4.85
2022-11-19T04:27:00.102Z,4.84
2022-11-19T04:29:28.526Z,4.84
2022-11-19T04:31:56.868Z,4.81
2022-11-19T04:34:25.251Z,4.80
2022-11-19T04:36:55.031Z,4.79
2022-11-19T04:39:23.526Z,4.78
2022-11-19T04:41:51.964Z,4.76
2022-11-19T04:44:20.339Z,4.73
2022-11-19T04:46:48.780Z,4.71
2022-11-19T04:49:17.301Z,4.70
2022-11-19T04:51:45.735Z,4.68
2022-11-19T04:54:15.505Z,4.66
2022-11-19T04:56:43.914Z,4.65
2022-11-19T04:59:12.255Z,4.62
2022-11-19T05:01:40.565Z,4.61
2022-11-19T05:04:08.973Z,4.59
2022-11-19T05:06:37.329Z,4.58
2022-11-19T05:09:05.689Z,4.54
2022-11-19T05:11:35.345Z,4.53
2022-11-19T05:14:04.686Z,4.53
2022-11-19T05:16:33.014Z,4.52
2022-11-19T05:19:01.356Z,4.50
2022-11-19T05:21:29.664Z,4.51
2022-11-19T05:23:58.082Z,4.49
2022-11-19T05:26:26.428Z,4.50
2022-11-19T05:28:56.129Z,4.48
2022-11-19T05:31:24.460Z,4.48
2022-11-19T05:33:52.757Z,4.48
2022-11-19T05:36:21.083Z,4.47
2022-11-19T05:38:49.413Z,4.46
2022-11-19T05:41:17.740Z,4.45
2022-11-19T05:43:46.098Z,4.45
2022-11-19T05:46:15.809Z,4.44
2022-11-19T05:48:44.132Z,4.44
2022-11-19T05:51:14.638Z,4.44
2022-11-19T05:53:43.233Z,4.42
2022-11-19T05:56:12.026Z,4.42
2022-11-19T05:58:40.353Z,4.43
2022-11-19T06:01:08.723Z,4.43
2022-11-19T06:03:38.381Z,4.43
2022-11-19T06:06:07.378Z,4.41
2022-11-19T06:08:35.693Z,4.42
2022-11-19T06:11:04.797Z,4.41
2022-11-19T06:13:33.136Z,4.41
2022-11-19T06:16:01.435Z,4.40
2022-11-19T06:18:29.788Z,4.39
2022-11-19T06:20:59.535Z,4.39
2022-11-19T06:23:27.810Z,4.37
2022-11-19T06:25:56.857Z,4.36
2022-11-19T06:28:25.212Z,4.36
2022-11-19T06:30:53.521Z,4.35
2022-11-19T06:33:21.913Z,4.36
2022-11-19T06:35:50.388Z,4.35
2022-11-19T06:38:20.221Z,4.33
2022-11-19T06:40:48.741Z,4.33
2022-11-19T06:43:17.058Z,4.32
2022-11-19T06:45:45.440Z,4.31
2022-11-19T06:48:13.784Z,4.29
2022-11-19T06:50:42.436Z,4.29
2022-11-19T06:53:10.753Z,4.27
2022-11-19T06:55:40.755Z,4.25
2022-11-19T06:58:09.241Z,4.23
2022-11-19T07:00:37.654Z,4.21
2022-11-19T07:03:05.976Z,4.20
2022-11-19T07:05:34.331Z,4.17
2022-11-19T07:08:03.454Z,4.15
2022-11-19T07:10:33.382Z,4.12
2022-11-19T07:13:03.288Z,4.10
2022-11-19T07:15:31.613Z,4.11
2022-11-19T07:18:00.008Z,4.09
2022-11-19T07:20:28.400Z,4.09
2022-11-19T07:22:59.379Z,4.07
2022-11-19T07:25:28.176Z,4.07
2022-11-19T07:27:56.513Z,4.06
2022-11-19T07:30:26.246Z,4.04
2022-11-19T07:32:55.142Z,4.04
2022-11-19T07:35:23.506Z,4.03
2022-11-19T07:37:51.851Z,4.03
2022-11-19T07:40:20.253Z,4.02
2022-11-19T07:42:50.482Z,4.01
2022-11-19T07:45:19.888Z,4.01
2022-11-19T07:47:49.671Z,4.01
2022-11-19T07:50:18.212Z,4.00
2022-11-19T07:52:46.605Z,4.00
2022-11-19T07:55:15.472Z,4.00
2022-11-19T07:57:43.903Z,3.99
2022-11-19T08:00:13.641Z,3.99
2022-11-19T08:02:41.949Z,3.98
2022-11-19T08:05:11.960Z,3.99
2022-11-19T08:07:40.592Z,4.00
2022-11-19T08:10:10.419Z,4.00
2022-11-19T08:12:38.741Z,3.99
2022-11-19T08:15:08.260Z,4.00
2022-11-19T08:17:54.033Z,3.99
2022-11-19T08:20:23.743Z,4.00
2022-11-19T08:22:53.075Z,4.01
2022-11-19T08:25:21.374Z,4.01
2022-11-19T08:27:49.724Z,4.03
2022-11-19T08:30:18.145Z,4.03
2022-11-19T08:32:46.452Z,4.05
2022-11-19T08:35:14.854Z,4.07
2022-11-19T08:37:44.585Z,4.10
2022-11-19T08:40:13.178Z,4.10
2022-11-19T08:42:59.244Z,4.13
2022-11-19T08:45:28.933Z,4.13
2022-11-19T08:47:58.017Z,4.14
2022-11-19T08:50:26.842Z,4.15
2022-11-19T08:52:58.296Z,4.16
2022-11-19T08:55:28.040Z,4.16
2022-11-19T08:58:01.614Z,4.15
2022-11-19T09:00:31.512Z,4.15
2022-11-19T09:02:59.891Z,4.15
2022-11-19T09:05:28.537Z,4.17
2022-11-19T09:07:58.291Z,4.16
2022-11-19T09:10:26.672Z,4.16
2022-11-19T09:12:54.974Z,4.14
2022-11-19T09:15:23.326Z,4.14
2022-11-19T09:17:51.739Z,4.11
2022-11-19T09:20:20.215Z,4.11
2022-11-19T09:22:48.590Z,4.11
2022-11-19T09:25:18.580Z,4.09
2022-11-19T09:27:46.927Z,4.09
2022-11-19T09:30:15.818Z,4.06
2022-11-19T09:32:44.193Z,4.05
2022-11-19T09:35:12.594Z,4.04
2022-11-19T09:37:40.912Z,4.03
2022-11-19T09:40:12.729Z,4.03
2022-11-19T09:42:51.685Z,4.04
2022-11-19T09:45:27.169Z,4.03
2022-11-19T09:48:09.270Z,4.04
2022-11-19T09:50:53.105Z,4.06
2022-11-19T09:53:23.914Z,4.06
2022-11-19T09:55:54.684Z,4.05
2022-11-19T09:58:31.992Z,4.06
2022-11-19T10:01:00.656Z,4.07
2022-11-19T10:03:33.399Z,4.08
2022-11-19T10:06:16.788Z,4.09
2022-11-19T10:08:59.608Z,4.10
2022-11-19T10:11:40.170Z,4.11
2022-11-19T10:14:19.501Z,4.13
2022-11-19T10:16:58.968Z,4.13
2022-11-19T10:19:43.072Z,4.14
2022-11-19T10:22:17.784Z,4.16
2022-11-19T10:24:51.292Z,4.19
2022-11-19T10:27:26.176Z,4.20
2022-11-19T10:29:59.805Z,4.21
2022-11-19T10:32:32.810Z,4.22
2022-11-19T10:35:09.253Z,4.22
2022-11-19T10:37:49.685Z,4.23
2022-11-19T10:40:21.899Z,4.23
2022-11-19T10:42:54.514Z,4.22
2022-11-19T10:45:27.064Z,4.21
2022-11-19T10:48:08.921Z,4.19
2022-11-19T10:50:38.190Z,4.18
2022-11-19T10:53:13.939Z,4.19
2022-11-19T10:55:46.970Z,4.19
2022-11-19T10:58:24.589Z,4.21
2022-11-19T11:00:56.820Z,4.21
2022-11-19T11:03:29.003Z,4.21
2022-11-19T11:05:59.662Z,4.22
2022-11-19T11:08:28.038Z,4.22
2022-11-19T11:10:56.619Z,4.22
2022-11-19T11:13:53.561Z,4.22
2022-11-19T11:16:26.434Z,4.21
2022-11-19T11:18:57.806Z,4.22
2022-11-19T11:21:35.405Z,4.21
2022-11-19T11:24:05.480Z,4.20
2022-11-19T11:26:35.222Z,4.22
2022-11-19T11:29:08.529Z,4.22
2022-11-19T11:31:41.039Z,4.23
2022-11-19T11:34:16.017Z,4.23
2022-11-19T11:36:45.306Z,4.22
2022-11-19T11:39:27.305Z,4.24
2022-11-19T11:42:06.329Z,4.24
2022-11-19T11:44:38.227Z,4.27
2022-11-19T11:47:15.642Z,4.30
2022-11-19T11:49:45.802Z,4.33
2022-11-19T11:52:19.393Z,4.34
2022-11-19T11:54:59.641Z,4.37
2022-11-19T11:57:30.839Z,4.39
2022-11-19T11:59:59.240Z,4.43
2022-11-19T12:02:31.273Z,4.45
2022-11-19T12:05:02.848Z,4.46
2022-11-19T12:07:57.222Z,4.47
2022-11-19T12:10:30.710Z,4.48
2022-11-19T12:13:10.618Z,4.50
2022-11-19T12:15:49.382Z,4.54
2022-11-19T12:18:29.428Z,4.54
2022-11-19T12:21:10.215Z,4.56
2022-11-19T12:24:01.052Z,4.54
2022-11-19T12:26:39.501Z,4.56
2022-11-19T12:29:19.368Z,4.58
2022-11-19T12:32:10.731Z,4.61
2022-11-19T12:35:07.648Z,4.64
2022-11-19T12:37:56.696Z,4.68
2022-11-19T12:40:40.421Z,4.69
2022-11-19T12:43:24.978Z,4.69
2022-11-19T12:46:03.769Z,4.72
2022-11-19T12:48:51.650Z,4.74
2022-11-19T12:51:34.806Z,4.78
2022-11-19T12:54:36.092Z,4.82
2022-11-19T12:57:23.674Z,4.84
2022-11-19T13:00:06.178Z,4.86
2022-11-19T13:02:39.403Z,4.88
2022-11-19T13:05:15.054Z,4.88
2022-11-19T13:07:50.235Z,4.92
2022-11-19T13:10:23.543Z,4.91
2022-11-19T13:12:55.759Z,4.92
2022-11-19T13:15:29.180Z,4.94
2022-11-19T13:18:00.985Z,4.94
2022-11-19T13:20:45.660Z,4.93
2022-11-19T13:23:22.398Z,4.93
2022-11-19T13:25:57.761Z,4.94
2022-11-19T13:28:31.967Z,4.94
2022-11-19T13:31:06.720Z,4.93
2022-11-19T13:33:40.267Z,4.93
2022-11-19T13:36:15.940Z,4.94
2022-11-19T13:38:51.203Z,4.96
2022-11-19T13:41:28.873Z,4.97
2022-11-19T13:44:15.628Z,5.00
2022-11-19T13:46:47.189Z,5.02
2022-11-19T13:49:21.712Z,5.03
2022-11-19T13:51:51.914Z,5.06
2022-11-19T13:54:26.260Z,5.07
2022-11-19T13:56:58.162Z,5.07
2022-11-19T13:59:38.568Z,5.08
2022-11-19T14:02:39.850Z,5.07
2022-11-19T14:05:28.792Z,5.05
2022-11-19T14:08:08.674Z,5.03
2022-11-19T14:10:45.436Z,5.01
2022-11-19T14:13:33.903Z,5.01
2022-11-19T14:16:33.942Z,5.00
2022-11-19T14:19:25.929Z,4.99
2022-11-19T14:22:13.117Z,4.97
2022-11-19T14:25:15.749Z,4.95
2022-11-19T14:27:45.906Z,4.90
2022-11-19T14:30:17.882Z,4.88
2022-11-19T14:32:52.145Z,4.86
2022-11-19T14:35:37.226Z,4.84
2022-11-19T14:38:20.210Z,4.82
2022-11-19T14:41:00.034Z,4.81
2022-11-19T14:43:47.665Z,4.79
2022-11-19T14:46:27.522Z,4.78
2022-11-19T14:49:23.108Z,4.76
2022-11-19T14:51:54.567Z,4.75
2022-11-19T14:54:35.877Z,4.74
2022-11-19T14:57:08.721Z,4.73
2022-11-19T14:59:39.898Z,4.71
2022-11-19T15:02:20.852Z,4.70
2022-11-19T15:04:55.153Z,4.68
2022-11-19T15:07:35.385Z,4.68
2022-11-19T15:10:11.868Z,4.65
2022-11-19T15:12:49.332Z,4.63
2022-11-19T15:15:38.396Z,4.61
2022-11-19T15:18:26.272Z,4.59
2022-11-19T15:21:14.352Z,4.56
2022-11-19T15:23:51.324Z,4.53
2022-11-19T15:26:26.404Z,4.52
2022-11-19T15:29:07.221Z,4.50
2022-11-19T15:31:54.203Z,4.47
2022-11-19T15:35:03.935Z,4.46
2022-11-19T15:37:43.998Z,4.43
2022-11-19T15:40:16.784Z,4.41
2022-11-19T15:42:51.417Z,4.40
2022-11-19T15:45:23.402Z,4.38
2022-11-19T15:47:55.934Z,4.35
2022-11-19T15:50:27.735Z,4.33
2022-11-19T15:53:00.434Z,4.31
2022-11-19T15:55:31.905Z,4.29
2022-11-19T15:58:04.488Z,4.27
2022-11-19T16:00:44.570Z,4.25
2022-11-19T16:03:16.159Z,4.23
2022-11-19T16:05:50.760Z,4.22
2022-11-19T16:08:19.242Z,4.21
2022-11-19T16:11:08.106Z,4.20
2022-11-19T16:13:54.411Z,4.18
2022-11-19T16:16:43.676Z,4.16
2022-11-19T16:19:16.429Z,4.14
2022-11-19T16:21:47.488Z,4.11
2022-11-19T16:24:36.756Z,4.10
2022-11-19T16:27:10.174Z,4.08
2022-11-19T16:29:42.181Z,4.07
2022-11-19T16:32:17.939Z,4.05
2022-11-19T16:34:48.201Z,4.03
2022-11-19T16:37:18.587Z,4.02
2022-11-19T16:39:51.933Z,3.99
2022-11-19T16:42:26.650Z,3.96
2022-11-19T16:44:56.154Z,3.94
2022-11-19T16:47:28.395Z,3.93
2022-11-19T16:50:03.489Z,3.92
2022-11-19T16:52:42.853Z,3.92
2022-11-19T16:55:39.524Z,3.90
2022-11-19T16:58:16.867Z,3.89
2022-11-19T17:00:51.002Z,3.87
2022-11-19T17:03:34.443Z,3.86
2022-11-19T17:06:05.757Z,3.85
2022-11-19T17:08:36.759Z,3.83
2022-11-19T17:11:37.206Z,3.82
2022-11-19T17:14:07.856Z,3.78
2022-11-19T17:16:36.282Z,3.78
2022-11-19T17:19:16.635Z,3.77
2022-11-19T17:21:54.207Z,3.76
2022-11-19T17:24:27.689Z,3.74
2022-11-19T17:26:56.869Z,3.75
2022-11-19T17:29:25.595Z,3.74
2022-11-19T17:31:56.332Z,3.73
2022-11-19T17:34:30.475Z,3.75
2022-11-19T17:37:00.627Z,3.74
2022-11-19T17:39:28.983Z,3.74
2022-11-19T17:42:14.821Z,3.75
2022-11-19T17:44:43.394Z,3.75
2022-11-19T17:47:22.316Z,3.75
2022-11-19T17:49:52.762Z,3.75
2022-11-19T17:52:24.752Z,3.75
2022-11-19T17:54:56.287Z,3.73
2022-11-19T17:57:24.647Z,3.74
2022-11-19T17:59:53.345Z,3.73
2022-11-19T18:02:22.161Z,3.73
2022-11-19T18:04:50.577Z,3.73
2022-11-19T18:07:19.131Z,3.73
2022-11-19T18:09:48.909Z,3.72
2022-11-19T18:12:19.927Z,3.73
2022-11-19T18:14:48.621Z,3.74
2022-11-19T18:17:17.475Z,3.73
2022-11-19T18:19:45.769Z,3.74
2022-11-19T18:22:18.421Z,3.74
2022-11-19T18:24:49.798Z,3.72
2022-11-19T18:27:18.457Z,3.72
2022-11-19T18:29:46.796Z,3.71
2022-11-19T18:32:16.948Z,3.72
2022-11-19T18:34:46.418Z,3.70
2022-11-19T18:37:14.835Z,3.70
2022-11-19T18:39:43.161Z,3.70
2022-11-19T18:42:13.246Z,3.68
2022-11-19T18:44:43.273Z,3.67
2022-11-19T18:47:13.715Z,3.66
2022-11-19T18:49:42.604Z,3.64
2022-11-19T18:52:14.956Z,3.63
2022-11-19T18:54:43.457Z,3.62
2022-11-19T18:57:13.914Z,3.60
2022-11-19T18:59:42.479Z,3.60
2022-11-19T19:02:11.804Z,3.60
2022-11-19T19:04:40.309Z,3.58
2022-11-19T19:07:08.751Z,3.58
2022-11-19T19:09:37.389Z,3.55
2022-11-19T19:12:18.506Z,3.54
2022-11-19T19:14:51.436Z,3.53
2022-11-19T19:17:20.110Z,3.52
2022-11-19T19:19:49.115Z,3.52
2022-11-19T19:22:18.284Z,3.51
2022-11-19T19:24:46.989Z,3.49
2022-11-19T19:27:15.891Z,3.48
2022-11-19T19:29:44.280Z,3.48
2022-11-19T19:32:13.975Z,3.47
2022-11-19T19:34:42.678Z,3.46
2022-11-19T19:37:11.056Z,3.45
2022-11-19T19:39:39.551Z,3.43
2022-11-19T19:42:07.989Z,3.43
2022-11-19T19:44:36.999Z,3.40
2022-11-19T19:47:06.118Z,3.41
2022-11-19T19:49:38.830Z,3.38
2022-11-19T19:52:07.679Z,3.36
2022-11-19T19:54:36.006Z,3.34
2022-11-19T19:57:04.558Z,3.32
2022-11-19T19:59:32.900Z,3.29
2022-11-19T20:02:01.275Z,3.28
2022-11-19T20:04:29.701Z,3.26
2022-11-19T20:06:59.503Z,3.24
2022-11-19T20:09:28.176Z,3.21
2022-11-19T20:11:56.682Z,3.20
2022-11-19T20:14:25.024Z,3.17
2022-11-19T20:16:53.821Z,3.16
2022-11-19T20:19:22.700Z,3.14
2022-11-19T20:21:52.236Z,3.12
2022-11-19T20:24:22.661Z,3.10
2022-11-19T20:26:50.980Z,3.07
2022-11-19T20:29:21.807Z,3.06
2022-11-19T20:31:51.708Z,3.03
2022-11-19T20:34:20.193Z,3.01
2022-11-19T20:36:48.997Z,2.99
2022-11-19T20:39:17.345Z,2.96
2022-11-19T20:42:04.256Z,2.94
2022-11-19T20:44:32.612Z,2.94
2022-11-19T20:47:03.092Z,2.92
2022-11-19T20:49:33.566Z,2.92
2022-11-19T20:52:02.357Z,2.91
2022-11-19T20:54:31.007Z,2.90
2022-11-19T20:57:01.624Z,2.91
2022-11-19T20:59:30.398Z,2.90
2022-11-19T21:01:58.878Z,2.90
2022-11-19T21:04:28.521Z,2.91
2022-11-19T21:06:57.174Z,2.92
2022-11-19T21:09:25.821Z,2.92
2022-11-19T21:11:54.601Z,2.91
2022-11-19T21:14:24.353Z,2.93
2022-11-19T21:16:52.740Z,2.93
2022-11-19T21:19:21.418Z,2.93
2022-11-19T21:21:49.937Z,2.92
2022-11-19T21:24:18.365Z,2.91
2022-11-19T21:26:46.721Z,2.91
2022-11-19T21:29:15.060Z,2.90
2022-11-19T21:31:46.620Z,2.89
2022-11-19T21:34:17.624Z,2.88
2022-11-19T21:36:47.322Z,2.88
2022-11-19T21:39:17.140Z,2.88
2022-11-19T21:41:45.945Z,2.86
2022-11-19T21:44:19.927Z,2.85
2022-11-19T21:46:51.366Z,2.83
2022-11-19T21:49:20.410Z,2.81
2022-11-19T21:51:49.146Z,2.78
2022-11-19T21:54:17.514Z,2.77
2022-11-19T21:56:45.910Z,2.75
2022-11-19T21:59:14.312Z,2.72
2022-11-19T22:01:42.677Z,2.69
2022-11-19T22:04:15.359Z,2.68
2022-11-19T22:06:43.767Z,2.67
2022-11-19T22:09:12.273Z,2.66
2022-11-19T22:11:40.642Z,2.66
2022-11-19T22:14:10.571Z,2.67
2022-11-19T22:16:40.698Z,2.69
2022-11-19T22:19:12.755Z,2.69
2022-11-19T22:21:41.444Z,2.71
2022-11-19T22:24:10.180Z,2.72
2022-11-19T22:26:38.523Z,2.73
2022-11-19T22:29:06.868Z,2.74
2022-11-19T22:31:35.205Z,2.75
2022-11-19T22:34:03.598Z,2.78
2022-11-19T22:36:34.187Z,2.79
2022-11-19T22:39:02.660Z,2.82
2022-11-19T22:41:31.044Z,2.84
2022-11-19T22:43:59.797Z,2.86
2022-11-19T22:46:28.812Z,2.88
2022-11-19T22:48:57.237Z,2.91
2022-11-19T22:51:26.906Z,2.93
2022-11-19T22:53:56.799Z,2.95
2022-11-19T22:56:27.936Z,2.96
2022-11-19T22:58:56.799Z,3.00
2022-11-19T23:01:26.822Z,3.01
2022-11-19T23:03:56.185Z,3.03
2022-11-19T23:06:25.575Z,3.05
2022-11-19T23:08:54.307Z,3.06
2022-11-19T23:11:38.714Z,3.09
2022-11-19T23:14:08.497Z,3.10
2022-11-19T23:16:37.239Z,3.12
2022-11-19T23:19:06.235Z,3.14
2022-11-19T23:21:34.631Z,3.15
2022-11-19T23:24:03.100Z,3.16
2022-11-19T23:26:34.239Z,3.19
2022-11-19T23:29:03.012Z,3.20
2022-11-19T23:31:33.062Z,3.25
2022-11-19T23:34:01.540Z,3.28
2022-11-19T23:36:31.791Z,3.28
2022-11-19T23:39:00.594Z,3.32
2022-11-19T23:41:33.889Z,3.35
2022-11-19T23:44:02.525Z,3.37
2022-11-19T23:46:32.301Z,3.39
2022-11-19T23:49:01.459Z,3.41
2022-11-19T23:51:32.480Z,3.43
2022-11-19T23:54:01.406Z,3.44
2022-11-19T23:56:31.244Z,3.46
2022-11-19T23:59:03.103Z,3.49
